createdAt,value
2024-01-31T00:01:13.469Z,2.94
2024-01-31T00:03:43.523Z,2.91
2024-01-31T00:06:14.758Z,2.89
2024-01-31T00:08:44.816Z,2.89
2024-01-31T00:11:14.655Z,2.89
2024-01-31T00:13:44.592Z,3.01
2024-01-31T00:16:18.216Z,3.04
2024-01-31T00:18:48.145Z,3.06
2024-01-31T00:21:18.031Z,3.08
2024-01-31T00:23:48.072Z,3.13
2024-01-31T00:26:18.089Z,3.19
2024-01-31T00:28:48.018Z,3.21
2024-01-31T00:31:20.590Z,3.28
2024-01-31T00:33:50.850Z,3.31
2024-01-31T00:36:20.831Z,3.29
2024-01-31T00:38:50.711Z,3.34
2024-01-31T00:41:20.620Z,3.34
2024-01-31T00:43:50.978Z,3.35
2024-01-31T00:46:23.683Z,3.33
2024-01-31T00:48:53.947Z,3.34
2024-01-31T00:51:23.898Z,3.34
2024-01-31T00:53:53.819Z,3.34
2024-01-31T00:56:23.703Z,3.32
2024-01-31T00:58:53.555Z,3.34
2024-01-31T01:01:26.094Z,3.34
2024-01-31T01:03:56.102Z,3.29
2024-01-31T01:06:26.058Z,3.31
2024-01-31T01:08:55.938Z,3.29
2024-01-31T01:11:26.801Z,3.31
2024-01-31T01:13:56.631Z,3.36
2024-01-31T01:16:29.183Z,3.39
2024-01-31T01:18:59.357Z,3.40
2024-01-31T01:21:29.274Z,3.46
2024-01-31T01:23:59.136Z,3.54
2024-01-31T01:26:29.072Z,3.55
2024-01-31T01:28:58.990Z,3.54
2024-01-31T01:31:31.506Z,3.55
2024-01-31T01:34:01.485Z,3.58
2024-01-31T01:36:31.475Z,3.61
2024-01-31T01:39:01.604Z,3.62
2024-01-31T01:41:31.508Z,3.67
2024-01-31T01:44:01.466Z,3.67
2024-01-31T01:46:37.893Z,3.74
2024-01-31T01:49:08.021Z,3.72
2024-01-31T01:51:38.917Z,3.74
2024-01-31T01:54:09.015Z,3.80
2024-01-31T01:56:38.999Z,3.77
2024-01-31T01:59:09.136Z,3.77
2024-01-31T02:01:43.204Z,3.84
2024-01-31T02:04:13.310Z,3.91
2024-01-31T02:06:43.921Z,3.93
2024-01-31T02:09:14.762Z,3.90
2024-01-31T02:11:44.664Z,3.92
2024-01-31T02:14:14.973Z,3.92
2024-01-31T02:16:50.041Z,4.01
2024-01-31T02:19:20.046Z,4.00
2024-01-31T02:21:50.017Z,4.02
2024-01-31T02:24:22.426Z,4.01
2024-01-31T02:26:52.298Z,4.05
2024-01-31T02:29:22.164Z,4.08
2024-01-31T02:31:52.040Z,4.08
2024-01-31T02:34:22.244Z,4.05
2024-01-31T02:36:52.214Z,4.07
2024-01-31T02:39:24.691Z,4.08
2024-01-31T02:41:54.981Z,4.09
2024-01-31T02:44:25.952Z,4.11
2024-01-31T02:46:55.840Z,4.11
2024-01-31T02:49:25.869Z,4.10
2024-01-31T02:51:56.753Z,4.11
2024-01-31T02:54:29.276Z,4.14
2024-01-31T02:56:59.115Z,4.19
2024-01-31T02:59:28.967Z,4.22
2024-01-31T03:02:00.033Z,4.24
2024-01-31T03:04:30.021Z,4.21
2024-01-31T03:06:59.925Z,4.17
2024-01-31T03:09:33.206Z,4.15
2024-01-31T03:12:05.759Z,4.11
2024-01-31T03:14:35.720Z,4.09
2024-01-31T03:17:05.767Z,4.07
2024-01-31T03:19:37.254Z,4.02
2024-01-31T03:22:10.449Z,4.04
2024-01-31T03:24:42.976Z,4.02
2024-01-31T03:27:15.381Z,4.00
2024-01-31T03:29:46.466Z,3.97
2024-01-31T03:32:16.360Z,3.97
2024-01-31T03:34:46.511Z,3.95
2024-01-31T03:37:16.423Z,3.93
2024-01-31T03:39:48.913Z,3.90
2024-01-31T03:42:18.816Z,3.91
2024-01-31T03:44:48.679Z,3.88
2024-01-31T03:47:18.659Z,3.94
2024-01-31T03:49:51.091Z,3.94
2024-01-31T03:52:21.194Z,3.94
2024-01-31T03:54:53.745Z,3.96
2024-01-31T03:57:23.585Z,3.94
2024-01-31T03:59:53.487Z,3.92
2024-01-31T04:02:23.500Z,3.95
2024-01-31T04:04:53.477Z,3.94
2024-01-31T04:07:23.386Z,3.92
2024-01-31T04:09:55.872Z,3.92
2024-01-31T04:12:25.768Z,3.93
2024-01-31T04:14:55.599Z,3.95
2024-01-31T04:17:25.649Z,3.96
2024-01-31T04:19:55.574Z,3.95
2024-01-31T04:22:25.548Z,3.95
2024-01-31T04:24:58.074Z,3.94
2024-01-31T04:27:27.980Z,3.93
2024-01-31T04:29:57.828Z,3.93
2024-01-31T04:32:27.753Z,3.95
2024-01-31T04:34:57.701Z,3.98
2024-01-31T04:37:27.663Z,3.97
2024-01-31T04:40:00.564Z,4.04
2024-01-31T04:42:30.716Z,4.05
2024-01-31T04:45:00.578Z,4.03
2024-01-31T04:47:30.514Z,4.05
2024-01-31T04:50:00.689Z,4.04
2024-01-31T04:52:30.939Z,4.08
2024-01-31T04:55:04.035Z,4.07
2024-01-31T04:57:34.034Z,4.05
2024-01-31T05:00:06.186Z,4.05
2024-01-31T05:02:36.032Z,4.08
2024-01-31T05:05:06.026Z,4.10
2024-01-31T05:07:35.972Z,4.14
2024-01-31T05:10:10.469Z,4.14
2024-01-31T05:12:40.496Z,4.12
2024-01-31T05:15:11.636Z,4.12
2024-01-31T05:17:42.652Z,4.15
2024-01-31T05:20:13.511Z,4.18
2024-01-31T05:22:44.125Z,4.17
2024-01-31T05:25:16.822Z,4.13
2024-01-31T05:27:46.740Z,4.16
2024-01-31T05:30:17.592Z,4.18
2024-01-31T05:32:47.887Z,4.21
2024-01-31T05:35:17.960Z,4.26
2024-01-31T05:37:47.989Z,4.24
2024-01-31T05:40:20.734Z,4.24
2024-01-31T05:42:53.332Z,4.30
2024-01-31T05:45:23.653Z,4.27
2024-01-31T05:47:53.736Z,4.26
2024-01-31T05:50:23.597Z,4.27
2024-01-31T05:52:53.496Z,4.28
2024-01-31T05:55:25.951Z,4.28
2024-01-31T05:57:56.146Z,4.31
2024-01-31T06:00:26.572Z,4.25
2024-01-31T06:03:00.096Z,4.23
2024-01-31T06:05:31.278Z,4.30
2024-01-31T06:08:04.192Z,4.28
2024-01-31T06:10:38.491Z,4.27
2024-01-31T06:13:08.502Z,4.28
2024-01-31T06:15:38.477Z,4.29
2024-01-31T06:18:08.655Z,4.27
2024-01-31T06:20:42.087Z,4.29
2024-01-31T06:23:11.997Z,4.28
2024-01-31T06:25:44.627Z,4.31
2024-01-31T06:28:14.597Z,4.35
2024-01-31T06:30:46.237Z,4.35
2024-01-31T06:33:18.956Z,4.38
2024-01-31T06:35:49.079Z,4.40
2024-01-31T06:38:19.324Z,4.44
2024-01-31T06:40:51.947Z,4.48
2024-01-31T06:43:21.866Z,4.53
2024-01-31T06:45:51.838Z,4.52
2024-01-31T06:48:21.912Z,4.53
2024-01-31T06:50:52.093Z,4.53
2024-01-31T06:53:22.851Z,4.54
2024-01-31T06:55:55.370Z,4.59
2024-01-31T06:58:26.038Z,4.59
2024-01-31T07:00:59.414Z,4.62
2024-01-31T07:03:29.560Z,4.65
2024-01-31T07:05:59.464Z,4.66
2024-01-31T07:08:29.361Z,4.68
2024-01-31T07:11:01.954Z,4.70
2024-01-31T07:13:33.129Z,4.72
2024-01-31T07:16:03.031Z,4.72
2024-01-31T07:18:33.844Z,4.73
2024-01-31T07:21:03.938Z,4.79
2024-01-31T07:23:33.895Z,4.79
2024-01-31T07:26:06.514Z,4.79
2024-01-31T07:28:38.164Z,4.79
2024-01-31T07:31:08.220Z,4.81
2024-01-31T07:33:38.536Z,4.80
2024-01-31T07:36:09.459Z,4.80
2024-01-31T07:38:39.365Z,4.79
2024-01-31T07:41:11.872Z,4.79
2024-01-31T07:43:43.965Z,4.83
2024-01-31T07:46:14.444Z,4.88
2024-01-31T07:48:44.339Z,4.92
2024-01-31T07:51:14.223Z,4.96
2024-01-31T07:53:44.682Z,5.01
2024-01-31T07:56:17.289Z,5.04
2024-01-31T07:58:47.285Z,5.03
2024-01-31T08:01:17.351Z,5.06
2024-01-31T08:03:47.298Z,5.06
2024-01-31T08:06:17.502Z,5.11
2024-01-31T08:08:47.446Z,5.14
2024-01-31T08:11:20.002Z,5.24
2024-01-31T08:13:49.991Z,5.24
2024-01-31T08:16:20.226Z,5.23
2024-01-31T08:18:50.092Z,5.25
2024-01-31T08:21:20.066Z,5.29
2024-01-31T08:23:51.486Z,5.23
2024-01-31T08:26:24.078Z,5.27
2024-01-31T08:29:07.093Z,5.27
2024-01-31T08:31:45.034Z,5.34
2024-01-31T08:34:16.239Z,5.39
2024-01-31T08:36:46.278Z,5.46
2024-01-31T08:39:16.151Z,5.54
2024-01-31T08:41:48.664Z,5.64
2024-01-31T08:44:18.650Z,5.76
2024-01-31T08:46:58.961Z,5.84
2024-01-31T08:49:38.901Z,5.83
2024-01-31T08:52:09.729Z,5.90
2024-01-31T08:54:39.940Z,6.09
2024-01-31T08:57:12.494Z,6.36
2024-01-31T08:59:42.376Z,6.52
2024-01-31T09:02:12.485Z,6.50
2024-01-31T09:04:42.581Z,6.38
2024-01-31T09:07:12.579Z,6.38
2024-01-31T09:09:42.525Z,6.36
2024-01-31T09:12:14.990Z,7.01
2024-01-31T09:14:44.843Z,7.47
2024-01-31T09:17:14.727Z,7.42
2024-01-31T09:19:48.068Z,8.18
2024-01-31T09:22:18.039Z,9.03
2024-01-31T09:24:48.183Z,9.63
2024-01-31T09:27:20.767Z,10.06
2024-01-31T09:29:50.766Z,10.75
2024-01-31T09:32:21.119Z,11.05
2024-01-31T09:34:52.895Z,11.05
2024-01-31T09:37:25.260Z,11.58
2024-01-31T09:39:57.513Z,11.52
2024-01-31T09:42:30.072Z,10.59
2024-01-31T09:45:01.675Z,10.40
2024-01-31T09:47:33.392Z,10.23
2024-01-31T09:50:04.334Z,9.37
2024-01-31T09:52:35.317Z,8.89
2024-01-31T09:55:06.456Z,8.63
2024-01-31T09:57:39.096Z,8.50
2024-01-31T10:00:10.682Z,8.32
2024-01-31T10:02:45.083Z,7.79
2024-01-31T10:05:15.008Z,7.66
2024-01-31T10:07:45.160Z,7.48
2024-01-31T10:10:15.294Z,7.43
2024-01-31T10:12:47.804Z,7.25
2024-01-31T10:15:17.831Z,7.06
2024-01-31T10:17:47.818Z,7.10
2024-01-31T10:20:18.499Z,6.90
2024-01-31T10:22:48.996Z,6.83
2024-01-31T10:25:20.385Z,6.75
2024-01-31T10:27:54.058Z,6.70
2024-01-31T10:30:26.737Z,6.72
2024-01-31T10:32:57.825Z,6.76
2024-01-31T10:35:48.169Z,6.70
2024-01-31T10:38:18.328Z,6.80
2024-01-31T10:40:51.435Z,6.98
2024-01-31T10:43:25.636Z,7.52
2024-01-31T10:45:55.609Z,8.43
2024-01-31T10:48:25.676Z,9.45
2024-01-31T10:50:57.715Z,9.57
2024-01-31T10:53:30.484Z,9.77
2024-01-31T10:56:01.426Z,9.70
2024-01-31T10:58:34.889Z,9.19
2024-01-31T11:01:06.559Z,9.08
2024-01-31T11:03:36.512Z,8.85
2024-01-31T11:06:06.760Z,8.72
2024-01-31T11:08:36.681Z,8.54
2024-01-31T11:11:07.127Z,8.41
2024-01-31T11:13:41.390Z,8.54
2024-01-31T11:16:11.360Z,8.55
2024-01-31T11:18:43.486Z,8.44
2024-01-31T11:21:16.038Z,8.15
2024-01-31T11:23:46.025Z,8.38
2024-01-31T11:26:16.216Z,8.11
2024-01-31T11:28:50.849Z,8.26
2024-01-31T11:31:21.525Z,7.98
2024-01-31T11:33:51.856Z,7.97
2024-01-31T11:36:21.980Z,7.66
2024-01-31T11:38:51.902Z,7.60
2024-01-31T11:41:21.952Z,7.69
2024-01-31T11:43:54.577Z,7.69
2024-01-31T11:46:24.854Z,7.77
2024-01-31T11:48:55.301Z,7.85
2024-01-31T11:51:25.302Z,7.65
2024-01-31T11:53:55.708Z,7.61
2024-01-31T11:56:27.568Z,7.61
2024-01-31T11:59:00.735Z,7.56
2024-01-31T12:01:30.883Z,7.64
2024-01-31T12:04:00.892Z,7.73
2024-01-31T12:06:31.273Z,7.72
2024-01-31T12:09:01.428Z,7.70
2024-01-31T12:11:32.735Z,7.65
2024-01-31T12:14:05.294Z,7.54
2024-01-31T12:16:43.730Z,7.47
2024-01-31T12:19:13.737Z,7.52
2024-01-31T12:21:45.202Z,7.42
2024-01-31T12:24:15.348Z,7.37
2024-01-31T12:26:45.331Z,7.43
2024-01-31T12:29:20.244Z,7.47
2024-01-31T12:31:50.191Z,7.51
2024-01-31T12:34:20.125Z,7.50
2024-01-31T12:36:50.070Z,7.48
2024-01-31T12:39:21.909Z,7.53
2024-01-31T12:41:53.819Z,7.58
2024-01-31T12:44:28.360Z,7.58
2024-01-31T12:46:58.951Z,7.62
2024-01-31T12:49:32.261Z,7.61
2024-01-31T12:52:02.177Z,7.49
2024-01-31T12:54:32.175Z,7.42
2024-01-31T12:57:02.418Z,7.36
2024-01-31T12:59:35.323Z,7.41
2024-01-31T13:02:05.732Z,7.44
2024-01-31T13:04:35.776Z,7.45
2024-01-31T13:07:06.178Z,7.50
2024-01-31T13:09:36.575Z,7.53
2024-01-31T13:12:10.722Z,7.63
2024-01-31T13:14:45.492Z,7.49
2024-01-31T13:17:15.512Z,7.29
2024-01-31T13:19:45.908Z,7.17
2024-01-31T13:22:15.945Z,7.06
2024-01-31T13:24:45.937Z,6.85
2024-01-31T13:27:15.923Z,6.83
2024-01-31T13:29:49.140Z,6.84
2024-01-31T13:32:19.103Z,6.85
2024-01-31T13:34:49.032Z,6.93
2024-01-31T13:37:19.293Z,6.97
2024-01-31T13:39:49.245Z,7.02
2024-01-31T13:42:19.313Z,7.06
2024-01-31T13:44:52.677Z,7.05
2024-01-31T13:47:24.598Z,6.98
2024-01-31T13:49:54.828Z,6.81
2024-01-31T13:52:25.695Z,6.86
2024-01-31T13:54:55.542Z,6.97
2024-01-31T13:57:25.419Z,6.91
2024-01-31T13:59:58.610Z,6.92
2024-01-31T14:02:29.004Z,6.94
2024-01-31T14:04:58.870Z,7.01
2024-01-31T14:07:28.778Z,7.04
2024-01-31T14:09:56.277Z,7.09
2024-01-31T14:12:26.405Z,7.14
2024-01-31T14:15:01.428Z,6.90
2024-01-31T14:17:31.524Z,6.90
2024-01-31T14:20:01.644Z,6.86
2024-01-31T14:25:05.365Z,6.63
2024-01-31T14:27:35.389Z,6.55
2024-01-31T14:30:09.512Z,6.50
2024-01-31T14:32:39.487Z,6.50
2024-01-31T14:35:09.894Z,6.51
2024-01-31T14:37:39.886Z,6.38
2024-01-31T14:40:11.400Z,6.34
2024-01-31T14:42:42.766Z,6.36
2024-01-31T14:45:15.508Z,6.32
2024-01-31T14:47:45.732Z,6.26
2024-01-31T14:50:15.916Z,6.22
2024-01-31T14:52:45.787Z,6.21
2024-01-31T14:55:15.694Z,6.14
2024-01-31T14:57:45.646Z,6.12
2024-01-31T15:00:19.396Z,6.03
2024-01-31T15:02:49.494Z,5.99
2024-01-31T15:05:19.816Z,5.98
2024-01-31T15:07:49.804Z,5.95
2024-01-31T15:10:19.908Z,5.95
2024-01-31T15:12:51.914Z,5.96
2024-01-31T15:15:24.418Z,5.91
2024-01-31T15:17:56.054Z,5.88
2024-01-31T15:20:26.085Z,5.85
2024-01-31T15:22:55.989Z,5.85
2024-01-31T15:25:25.912Z,5.84
2024-01-31T15:27:56.182Z,5.83
2024-01-31T15:30:29.823Z,5.79
2024-01-31T15:33:00.167Z,5.77
2024-01-31T15:35:30.147Z,5.76
2024-01-31T15:38:00.038Z,5.71
2024-01-31T15:40:30.564Z,5.69
2024-01-31T15:43:00.728Z,5.71
2024-01-31T15:45:33.262Z,5.72
2024-01-31T15:48:03.286Z,5.70
2024-01-31T15:50:33.292Z,5.69
2024-01-31T15:53:03.230Z,5.67
2024-01-31T15:55:33.307Z,5.64
2024-01-31T15:58:03.162Z,5.62
2024-01-31T16:00:35.718Z,5.61
2024-01-31T16:03:05.729Z,5.60
2024-01-31T16:05:35.727Z,5.56
2024-01-31T16:08:05.677Z,5.52
2024-01-31T16:10:35.658Z,5.55
2024-01-31T16:13:05.565Z,5.55
2024-01-31T16:15:38.033Z,5.51
2024-01-31T16:18:10.004Z,5.51
2024-01-31T16:20:45.630Z,5.48
2024-01-31T16:23:16.465Z,5.44
2024-01-31T16:25:46.686Z,5.45
2024-01-31T16:28:18.536Z,5.43
2024-01-31T16:30:56.530Z,5.40
2024-01-31T16:33:27.453Z,5.38
2024-01-31T16:35:58.933Z,5.42
2024-01-31T16:38:28.871Z,5.38
2024-01-31T16:40:58.788Z,5.41
2024-01-31T16:43:29.091Z,5.41
2024-01-31T16:46:01.658Z,5.39
2024-01-31T16:48:31.769Z,5.41
2024-01-31T16:51:01.829Z,5.38
2024-01-31T16:53:31.746Z,5.40
2024-01-31T16:56:01.613Z,5.40
2024-01-31T16:58:31.470Z,5.37
2024-01-31T17:01:04.011Z,5.34
2024-01-31T17:03:34.141Z,5.32
2024-01-31T17:06:04.842Z,5.30
2024-01-31T17:08:36.338Z,5.27
2024-01-31T17:11:06.910Z,5.25
2024-01-31T17:13:36.788Z,5.22
2024-01-31T17:16:10.638Z,5.23
2024-01-31T17:18:40.664Z,5.17
2024-01-31T17:21:11.912Z,5.17
2024-01-31T17:23:41.949Z,5.14
2024-01-31T17:26:11.927Z,5.14
2024-01-31T17:28:41.762Z,5.11
2024-01-31T17:31:14.376Z,5.12
2024-01-31T17:33:45.707Z,5.13
2024-01-31T17:36:15.941Z,5.11
2024-01-31T17:38:45.788Z,5.12
2024-01-31T17:41:19.686Z,5.16
2024-01-31T17:43:49.563Z,5.12
2024-01-31T17:46:26.480Z,5.10
2024-01-31T17:48:58.547Z,5.09
2024-01-31T17:51:28.563Z,5.09
2024-01-31T17:53:58.477Z,5.07
2024-01-31T17:56:28.716Z,5.06
2024-01-31T17:58:58.566Z,5.02
2024-01-31T18:01:31.047Z,5.00
2024-01-31T18:04:00.981Z,4.99
2024-01-31T18:06:31.065Z,4.98
2024-01-31T18:09:01.083Z,4.96
2024-01-31T18:11:31.370Z,5.00
2024-01-31T18:14:01.246Z,4.98
2024-01-31T18:16:33.705Z,4.95
2024-01-31T18:19:04.149Z,4.96
2024-01-31T18:21:37.576Z,4.95
2024-01-31T18:24:08.790Z,4.94
2024-01-31T18:26:38.846Z,4.90
2024-01-31T18:29:08.749Z,4.89
2024-01-31T18:31:44.882Z,4.90
2024-01-31T18:34:14.657Z,4.88
2024-01-31T18:36:51.393Z,4.84
2024-01-31T18:39:21.268Z,4.79
2024-01-31T18:41:51.154Z,4.79
2024-01-31T18:44:20.996Z,4.77
2024-01-31T18:46:54.517Z,4.74
2024-01-31T18:49:24.768Z,4.73
2024-01-31T18:51:54.800Z,4.72
2024-01-31T18:54:24.629Z,4.72
2024-01-31T18:56:54.529Z,4.70
2024-01-31T18:59:24.491Z,4.70
2024-01-31T19:01:57.879Z,4.69
2024-01-31T19:04:28.382Z,4.69
2024-01-31T19:06:58.315Z,4.67
2024-01-31T19:09:28.177Z,4.67
2024-01-31T19:11:58.169Z,4.70
2024-01-31T19:14:29.112Z,4.71
2024-01-31T19:17:10.550Z,4.69
2024-01-31T19:19:45.775Z,4.66
2024-01-31T19:22:15.759Z,4.66
2024-01-31T19:24:45.605Z,4.63
2024-01-31T19:27:15.944Z,4.60
2024-01-31T19:29:45.931Z,4.58
2024-01-31T19:32:18.563Z,4.58
2024-01-31T19:34:48.829Z,4.57
2024-01-31T19:37:18.724Z,4.56
2024-01-31T19:39:48.645Z,4.49
2024-01-31T19:42:18.625Z,4.46
2024-01-31T19:44:48.573Z,4.37
2024-01-31T19:47:22.594Z,4.29
2024-01-31T19:49:54.408Z,4.19
2024-01-31T19:52:24.352Z,4.12
2024-01-31T19:54:54.239Z,4.09
2024-01-31T19:57:24.116Z,4.06
2024-01-31T19:59:54.137Z,4.04
2024-01-31T20:02:26.637Z,3.93
2024-01-31T20:04:56.674Z,3.81
2024-01-31T20:07:26.799Z,3.72
2024-01-31T20:09:56.733Z,3.61
2024-01-31T20:12:26.670Z,3.52
2024-01-31T20:14:56.587Z,3.42
2024-01-31T20:17:30.535Z,3.37
2024-01-31T20:20:00.632Z,3.27
2024-01-31T20:22:30.909Z,3.14
2024-01-31T20:25:00.879Z,3.11
2024-01-31T20:27:32.098Z,3.04
2024-01-31T20:30:02.473Z,2.93
2024-01-31T20:32:35.071Z,2.83
2024-01-31T20:35:05.135Z,2.78
2024-01-31T20:37:35.047Z,2.72
2024-01-31T20:40:04.974Z,2.67
2024-01-31T20:42:34.828Z,2.60
2024-01-31T20:45:05.013Z,2.52
2024-01-31T20:47:37.536Z,2.43
2024-01-31T20:50:08.929Z,2.36
2024-01-31T20:52:40.187Z,2.30
2024-01-31T20:55:10.974Z,2.18
2024-01-31T20:57:40.821Z,2.13
2024-01-31T21:00:11.927Z,2.09
2024-01-31T21:02:44.549Z,2.06
2024-01-31T21:05:14.669Z,1.97
2024-01-31T21:07:44.525Z,1.95
2024-01-31T21:10:14.953Z,1.86
2024-01-31T21:12:44.924Z,1.80
2024-01-31T21:15:15.706Z,1.73
2024-01-31T21:17:48.923Z,1.71
2024-01-31T21:20:19.048Z,1.63
2024-01-31T21:22:48.942Z,1.56
2024-01-31T21:25:19.161Z,1.50
2024-01-31T21:27:49.064Z,1.43
2024-01-31T21:30:19.245Z,1.31
2024-01-31T21:32:54.145Z,1.23
2024-01-31T21:35:24.174Z,1.15
2024-01-31T21:37:54.830Z,1.14
2024-01-31T21:40:25.706Z,1.12
2024-01-31T21:42:56.082Z,1.00
2024-01-31T21:45:25.987Z,0.95
2024-01-31T21:47:58.489Z,0.84
2024-01-31T21:50:28.455Z,0.75
2024-01-31T21:53:00.135Z,0.72
2024-01-31T21:55:30.728Z,0.68
2024-01-31T21:58:00.600Z,0.63
2024-01-31T22:00:30.497Z,0.60
2024-01-31T22:03:03.090Z,0.56
2024-01-31T22:05:33.340Z,0.56
2024-01-31T22:08:03.336Z,0.63
2024-01-31T22:10:33.253Z,0.69
2024-01-31T22:13:03.295Z,0.71
2024-01-31T22:15:33.146Z,0.71
2024-01-31T22:18:07.358Z,0.69
2024-01-31T22:20:37.358Z,0.71
2024-01-31T22:23:07.655Z,0.67
2024-01-31T22:25:37.539Z,0.65
2024-01-31T22:28:08.196Z,0.62
2024-01-31T22:30:38.253Z,0.67
2024-01-31T22:33:11.088Z,0.66
2024-01-31T22:35:41.017Z,0.56
2024-01-31T22:38:10.945Z,0.51
2024-01-31T22:40:40.867Z,0.53
2024-01-31T22:43:10.707Z,0.47
2024-01-31T22:45:40.718Z,0.41
2024-01-31T22:48:13.327Z,0.45
2024-01-31T22:50:44.664Z,0.53
2024-01-31T22:53:15.025Z,0.47
2024-01-31T22:55:44.870Z,0.47
2024-01-31T22:58:15.055Z,0.67
2024-01-31T23:00:44.975Z,0.74
2024-01-31T23:03:17.509Z,0.85
2024-01-31T23:05:47.958Z,0.86
2024-01-31T23:08:17.883Z,0.88
2024-01-31T23:10:47.808Z,0.91
2024-01-31T23:13:17.679Z,0.87
2024-01-31T23:15:49.181Z,0.84
2024-01-31T23:18:21.755Z,0.86
2024-01-31T23:20:51.710Z,0.81
2024-01-31T23:23:21.592Z,0.70
2024-01-31T23:25:51.505Z,0.55
2024-01-31T23:28:21.975Z,0.43
2024-01-31T23:30:51.873Z,0.47
2024-01-31T23:33:24.413Z,0.43
2024-01-31T23:35:54.340Z,0.36
2024-01-31T23:38:26.536Z,0.34
2024-01-31T23:40:57.181Z,0.31
2024-01-31T23:43:27.025Z,0.23
2024-01-31T23:45:57.035Z,0.10
2024-01-31T23:48:29.574Z,0.03
2024-01-31T23:50:59.591Z,-0.02
2024-01-31T23:53:29.503Z,0.03
2024-01-31T23:56:01.360Z,0.04
2024-01-31T23:58:31.225Z,0.01
